sensor_id;sensor_type;location;lat;lon;timestamp;pressure;altitude;pressure_sealevel;temperature;humidity
64792;BME280;51226;47.504;19.074;2023-02-19T00:00:48;100326.00;;;12.47;55.77
64792;BME280;51226;47.504;19.074;2023-02-19T00:07:15;100330.38;;;12.48;55.73
64792;BME280;51226;47.504;19.074;2023-02-19T00:10:19;100333.53;;;12.36;55.77
64792;BME280;51226;47.504;19.074;2023-02-19T00:13:21;100324.50;;;12.26;56.87
64792;BME280;51226;47.504;19.074;2023-02-19T00:16:38;100323.41;;;12.18;57.02
64792;BME280;51226;47.504;19.074;2023-02-19T00:19:41;100324.31;;;12.18;56.41
64792;BME280;51226;47.504;19.074;2023-02-19T00:22:44;100319.06;;;12.18;56.39
64792;BME280;51226;47.504;19.074;2023-02-19T00:25:46;100319.03;;;12.17;56.41
64792;BME280;51226;47.504;19.074;2023-02-19T00:28:50;100311.84;;;12.10;57.17
64792;BME280;51226;47.504;19.074;2023-02-19T00:31:54;100315.53;;;12.16;56.27
64792;BME280;51226;47.504;19.074;2023-02-19T00:34:57;100315.44;;;12.13;57.22
64792;BME280;51226;47.504;19.074;2023-02-19T00:38:00;100310.84;;;12.06;57.25
64792;BME280;51226;47.504;19.074;2023-02-19T00:41:03;100310.06;;;12.09;56.02
64792;BME280;51226;47.504;19.074;2023-02-19T00:44:20;100312.88;;;12.15;55.75
64792;BME280;51226;47.504;19.074;2023-02-19T00:47:23;100308.37;;;12.11;55.70
64792;BME280;51226;47.504;19.074;2023-02-19T00:50:26;100310.97;;;12.11;55.77
64792;BME280;51226;47.504;19.074;2023-02-19T00:53:29;100312.81;;;12.13;55.57
64792;BME280;51226;47.504;19.074;2023-02-19T00:56:31;100323.06;;;12.07;55.88
64792;BME280;51226;47.504;19.074;2023-02-19T00:59:35;100323.88;;;12.04;57.13
64792;BME280;51226;47.504;19.074;2023-02-19T01:02:38;100321.34;;;12.08;55.94
64792;BME280;51226;47.504;19.074;2023-02-19T01:05:41;100325.69;;;12.07;55.59
64792;BME280;51226;47.504;19.074;2023-02-19T01:08:44;100322.06;;;12.02;56.15
64792;BME280;51226;47.504;19.074;2023-02-19T01:11:47;100322.31;;;12.10;56.13
64792;BME280;51226;47.504;19.074;2023-02-19T01:14:50;100324.81;;;12.07;56.26
64792;BME280;51226;47.504;19.074;2023-02-19T01:17:54;100314.75;;;12.20;55.47
64792;BME280;51226;47.504;19.074;2023-02-19T01:20:56;100318.72;;;12.08;57.17
64792;BME280;51226;47.504;19.074;2023-02-19T01:23:59;100302.41;;;12.15;56.16
64792;BME280;51226;47.504;19.074;2023-02-19T01:27:02;100306.09;;;12.21;55.77
64792;BME280;51226;47.504;19.074;2023-02-19T01:30:06;100312.97;;;12.18;56.39
64792;BME280;51226;47.504;19.074;2023-02-19T01:33:09;100314.91;;;12.25;55.85
64792;BME280;51226;47.504;19.074;2023-02-19T01:36:12;100301.97;;;12.30;55.50
64792;BME280;51226;47.504;19.074;2023-02-19T01:39:15;100302.72;;;12.26;55.80
64792;BME280;51226;47.504;19.074;2023-02-19T01:42:18;100314.91;;;12.25;55.76
64792;BME280;51226;47.504;19.074;2023-02-19T01:48:35;100323.78;;;12.30;55.50
64792;BME280;51226;47.504;19.074;2023-02-19T01:51:54;100319.94;;;12.19;57.13
64792;BME280;51226;47.504;19.074;2023-02-19T01:55:01;100310.31;;;12.16;56.77
64792;BME280;51226;47.504;19.074;2023-02-19T01:58:05;100305.75;;;12.11;57.18
64792;BME280;51226;47.504;19.074;2023-02-19T02:01:12;100309.13;;;12.07;56.64
64792;BME280;51226;47.504;19.074;2023-02-19T02:04:16;100306.94;;;12.20;55.87
64792;BME280;51226;47.504;19.074;2023-02-19T02:07:22;100296.38;;;12.17;56.14
64792;BME280;51226;47.504;19.074;2023-02-19T02:10:44;100288.84;;;12.28;55.75
64792;BME280;51226;47.504;19.074;2023-02-19T02:13:47;100284.75;;;12.08;57.84
64792;BME280;51226;47.504;19.074;2023-02-19T02:16:56;100289.97;;;12.08;56.84
64792;BME280;51226;47.504;19.074;2023-02-19T02:33:47;100277.44;;;12.26;56.35
64792;BME280;51226;47.504;19.074;2023-02-19T02:36:53;100264.16;;;12.18;56.77
64792;BME280;51226;47.504;19.074;2023-02-19T02:39:57;100270.06;;;12.11;57.20
64792;BME280;51226;47.504;19.074;2023-02-19T02:43:00;100275.28;;;12.11;57.19
64792;BME280;51226;47.504;19.074;2023-02-19T02:46:05;100277.81;;;12.08;57.30
64792;BME280;51226;47.504;19.074;2023-02-19T02:49:13;100286.62;;;12.12;57.07
64792;BME280;51226;47.504;19.074;2023-02-19T02:52:19;100287.25;;;12.03;58.21
64792;BME280;51226;47.504;19.074;2023-02-19T02:55:43;100290.94;;;12.10;57.11
64792;BME280;51226;47.504;19.074;2023-02-19T02:58:48;100294.37;;;12.09;57.80
64792;BME280;51226;47.504;19.074;2023-02-19T03:02:13;100301.28;;;12.07;57.54
64792;BME280;51226;47.504;19.074;2023-02-19T03:05:23;100304.81;;;12.09;57.39
64792;BME280;51226;47.504;19.074;2023-02-19T03:09:01;100308.22;;;12.35;56.67
64792;BME280;51226;47.504;19.074;2023-02-19T03:12:13;100312.97;;;12.18;57.85
64792;BME280;51226;47.504;19.074;2023-02-19T03:15:54;100302.66;;;12.24;57.22
64792;BME280;51226;47.504;19.074;2023-02-19T03:19:26;100301.25;;;12.05;58.60
64792;BME280;51226;47.504;19.074;2023-02-19T03:22:33;100300.56;;;12.12;57.89
64792;BME280;51226;47.504;19.074;2023-02-19T03:25:38;100303.38;;;12.18;57.54
64792;BME280;51226;47.504;19.074;2023-02-19T03:29:02;100298.66;;;12.07;58.27
64792;BME280;51226;47.504;19.074;2023-02-19T03:32:28;100311.75;;;12.07;58.05
64792;BME280;51226;47.504;19.074;2023-02-19T03:35:35;100321.34;;;12.08;57.73
64792;BME280;51226;47.504;19.074;2023-02-19T03:38:50;100316.06;;;12.06;57.91
64792;BME280;51226;47.504;19.074;2023-02-19T03:41:59;100306.09;;;12.21;57.04
64792;BME280;51226;47.504;19.074;2023-02-19T03:51:39;100319.38;;;12.00;58.21
64792;BME280;51226;47.504;19.074;2023-02-19T03:54:47;100321.66;;;11.90;58.87
64792;BME280;51226;47.504;19.074;2023-02-19T03:57:58;100321.38;;;11.82;59.65
64792;BME280;51226;47.504;19.074;2023-02-19T04:01:16;100313.44;;;11.79;59.75
64792;BME280;51226;47.504;19.074;2023-02-19T04:04:44;100309.03;;;11.76;59.83
64792;BME280;51226;47.504;19.074;2023-02-19T04:07:53;100304.19;;;11.89;58.70
64792;BME280;51226;47.504;19.074;2023-02-19T04:11:00;100306.78;;;11.89;59.14
64792;BME280;51226;47.504;19.074;2023-02-19T04:14:12;100308.00;;;11.98;58.18
64792;BME280;51226;47.504;19.074;2023-02-19T04:17:28;100309.59;;;11.93;58.77
64792;BME280;51226;47.504;19.074;2023-02-19T04:20:38;100313.88;;;11.91;58.17
64792;BME280;51226;47.504;19.074;2023-02-19T04:23:44;100311.28;;;11.93;58.63
64792;BME280;51226;47.504;19.074;2023-02-19T04:26:47;100312.78;;;11.84;58.90
64792;BME280;51226;47.504;19.074;2023-02-19T04:29:50;100311.75;;;11.81;59.65
64792;BME280;51226;47.504;19.074;2023-02-19T04:32:53;100310.12;;;11.83;58.62
64792;BME280;51226;47.504;19.074;2023-02-19T04:35:56;100315.28;;;11.81;58.69
64792;BME280;51226;47.504;19.074;2023-02-19T04:38:58;100313.28;;;11.74;59.31
64792;BME280;51226;47.504;19.074;2023-02-19T04:42:01;100305.34;;;11.70;59.27
64792;BME280;51226;47.504;19.074;2023-02-19T04:45:04;100313.06;;;11.66;59.47
64792;BME280;51226;47.504;19.074;2023-02-19T04:48:08;100313.78;;;11.62;59.64
64792;BME280;51226;47.504;19.074;2023-02-19T04:51:11;100292.94;;;11.64;59.17
64792;BME280;51226;47.504;19.074;2023-02-19T04:54:14;100308.47;;;11.59;59.55
64792;BME280;51226;47.504;19.074;2023-02-19T04:57:17;100310.94;;;11.55;59.66
64792;BME280;51226;47.504;19.074;2023-02-19T05:00:20;100312.56;;;11.51;60.19
64792;BME280;51226;47.504;19.074;2023-02-19T05:03:22;100299.53;;;11.53;59.44
64792;BME280;51226;47.504;19.074;2023-02-19T05:06:26;100300.56;;;11.56;59.81
64792;BME280;51226;47.504;19.074;2023-02-19T05:09:28;100297.84;;;11.53;59.79
64792;BME280;51226;47.504;19.074;2023-02-19T05:12:32;100292.56;;;11.52;59.96
64792;BME280;51226;47.504;19.074;2023-02-19T05:15:36;100300.34;;;11.50;60.03
64792;BME280;51226;47.504;19.074;2023-02-19T05:18:39;100303.41;;;11.64;58.83
64792;BME280;51226;47.504;19.074;2023-02-19T05:21:42;100291.41;;;11.71;58.52
64792;BME280;51226;47.504;19.074;2023-02-19T05:24:45;100298.63;;;12.05;57.20
64792;BME280;51226;47.504;19.074;2023-02-19T05:27:48;100305.66;;;12.08;57.27
64792;BME280;51226;47.504;19.074;2023-02-19T05:30:51;100309.22;;;12.10;57.45
64792;BME280;51226;47.504;19.074;2023-02-19T05:33:54;100310.47;;;11.94;58.26
64792;BME280;51226;47.504;19.074;2023-02-19T05:36:58;100303.81;;;12.03;58.16
64792;BME280;51226;47.504;19.074;2023-02-19T05:40:00;100301.19;;;12.03;58.57
64792;BME280;51226;47.504;19.074;2023-02-19T05:43:04;100305.97;;;11.90;59.28
64792;BME280;51226;47.504;19.074;2023-02-19T05:46:07;100304.94;;;11.86;59.84
64792;BME280;51226;47.504;19.074;2023-02-19T05:49:11;100296.28;;;11.87;60.26
64792;BME280;51226;47.504;19.074;2023-02-19T05:52:14;100295.41;;;11.86;60.90
64792;BME280;51226;47.504;19.074;2023-02-19T05:55:17;100299.09;;;11.92;61.11
64792;BME280;51226;47.504;19.074;2023-02-19T05:58:20;100303.16;;;11.83;61.90
64792;BME280;51226;47.504;19.074;2023-02-19T06:01:26;100309.03;;;11.76;62.63
64792;BME280;51226;47.504;19.074;2023-02-19T06:04:29;100317.69;;;12.02;62.26
64792;BME280;51226;47.504;19.074;2023-02-19T06:07:32;100321.50;;;11.85;63.13
64792;BME280;51226;47.504;19.074;2023-02-19T06:10:35;100320.88;;;11.92;63.33
64792;BME280;51226;47.504;19.074;2023-02-19T06:13:40;100312.38;;;11.72;63.95
64792;BME280;51226;47.504;19.074;2023-02-19T06:16:42;100323.69;;;11.45;65.31
64792;BME280;51226;47.504;19.074;2023-02-19T06:19:45;100317.25;;;11.36;65.70
64792;BME280;51226;47.504;19.074;2023-02-19T06:22:49;100312.69;;;11.28;66.43
64792;BME280;51226;47.504;19.074;2023-02-19T06:25:52;100305.03;;;11.09;67.63
64792;BME280;51226;47.504;19.074;2023-02-19T06:28:55;100304.44;;;11.16;67.86
64792;BME280;51226;47.504;19.074;2023-02-19T06:31:59;100305.84;;;11.06;68.41
64792;BME280;51226;47.504;19.074;2023-02-19T06:35:03;100302.66;;;10.89;69.07
64792;BME280;51226;47.504;19.074;2023-02-19T06:38:06;100307.87;;;10.89;69.23
64792;BME280;51226;47.504;19.074;2023-02-19T06:41:10;100306.19;;;10.91;69.35
64792;BME280;51226;47.504;19.074;2023-02-19T06:44:13;100289.50;;;10.86;69.32
64792;BME280;51226;47.504;19.074;2023-02-19T06:47:16;100286.50;;;10.75;69.31
64792;BME280;51226;47.504;19.074;2023-02-19T06:50:19;100290.81;;;10.75;69.46
64792;BME280;51226;47.504;19.074;2023-02-19T06:53:22;100282.78;;;10.69;69.71
64792;BME280;51226;47.504;19.074;2023-02-19T06:56:31;100305.78;;;10.81;69.68
64792;BME280;51226;47.504;19.074;2023-02-19T06:59:34;100307.09;;;10.68;70.17
64792;BME280;51226;47.504;19.074;2023-02-19T07:02:37;100300.97;;;10.67;70.26
64792;BME280;51226;47.504;19.074;2023-02-19T07:05:39;100301.34;;;10.52;70.93
64792;BME280;51226;47.504;19.074;2023-02-19T07:08:43;100297.06;;;10.54;70.98
64792;BME280;51226;47.504;19.074;2023-02-19T07:11:46;100304.53;;;10.45;71.29
64792;BME280;51226;47.504;19.074;2023-02-19T07:14:49;100300.50;;;10.31;71.87
64792;BME280;51226;47.504;19.074;2023-02-19T07:17:52;100306.53;;;10.30;71.80
64792;BME280;51226;47.504;19.074;2023-02-19T07:20:54;100317.91;;;10.09;72.05
64792;BME280;51226;47.504;19.074;2023-02-19T07:24:04;100312.81;;;9.90;72.91
64792;BME280;51226;47.504;19.074;2023-02-19T07:27:07;100304.06;;;9.88;73.35
64792;BME280;51226;47.504;19.074;2023-02-19T07:30:10;100297.06;;;9.87;73.34
64792;BME280;51226;47.504;19.074;2023-02-19T07:33:13;100297.91;;;9.86;73.20
64792;BME280;51226;47.504;19.074;2023-02-19T07:36:19;100289.78;;;9.78;73.32
64792;BME280;51226;47.504;19.074;2023-02-19T07:39:23;100283.56;;;9.74;73.61
64792;BME280;51226;47.504;19.074;2023-02-19T07:42:26;100280.84;;;9.71;73.94
64792;BME280;51226;47.504;19.074;2023-02-19T07:45:29;100282.28;;;9.86;73.19
64792;BME280;51226;47.504;19.074;2023-02-19T07:48:34;100284.03;;;9.87;72.86
64792;BME280;51226;47.504;19.074;2023-02-19T07:51:36;100286.56;;;9.85;72.68
64792;BME280;51226;47.504;19.074;2023-02-19T07:54:41;100291.37;;;9.74;73.19
64792;BME280;51226;47.504;19.074;2023-02-19T07:57:44;100308.53;;;9.69;73.95
64792;BME280;51226;47.504;19.074;2023-02-19T08:00:47;100299.31;;;9.77;73.79
64792;BME280;51226;47.504;19.074;2023-02-19T08:03:50;100308.66;;;9.72;73.74
64792;BME280;51226;47.504;19.074;2023-02-19T08:06:52;100315.50;;;9.70;74.64
64792;BME280;51226;47.504;19.074;2023-02-19T08:09:56;100309.78;;;9.79;74.06
64792;BME280;51226;47.504;19.074;2023-02-19T08:13:19;100319.91;;;9.94;73.06
64792;BME280;51226;47.504;19.074;2023-02-19T08:16:24;100322.84;;;9.80;73.53
64792;BME280;51226;47.504;19.074;2023-02-19T08:19:44;100327.91;;;9.76;74.85
64792;BME280;51226;47.504;19.074;2023-02-19T08:22:49;100318.63;;;9.82;75.10
64792;BME280;51226;47.504;19.074;2023-02-19T08:25:55;100329.53;;;9.74;76.23
64792;BME280;51226;47.504;19.074;2023-02-19T08:28:59;100327.97;;;9.77;76.30
64792;BME280;51226;47.504;19.074;2023-02-19T08:32:01;100336.97;;;9.86;76.03
64792;BME280;51226;47.504;19.074;2023-02-19T08:35:05;100349.03;;;9.83;77.00
64792;BME280;51226;47.504;19.074;2023-02-19T08:38:09;100342.19;;;9.86;nan
64792;BME280;51226;47.504;19.074;2023-02-19T08:41:13;100341.22;;;9.83;78.99
64792;BME280;51226;47.504;19.074;2023-02-19T08:44:16;100324.16;;;9.92;81.05
64792;BME280;51226;47.504;19.074;2023-02-19T08:47:19;100320.75;;;10.15;82.50
64792;BME280;51226;47.504;19.074;2023-02-19T08:50:21;100314.69;;;10.37;83.51
64792;BME280;51226;47.504;19.074;2023-02-19T08:53:25;100317.19;;;10.59;83.28
64792;BME280;51226;47.504;19.074;2023-02-19T08:56:27;100323.69;;;10.70;84.89
64792;BME280;51226;47.504;19.074;2023-02-19T08:59:31;100316.84;;;10.73;84.69
64792;BME280;51226;47.504;19.074;2023-02-19T09:02:34;100320.22;;;10.95;84.40
64792;BME280;51226;47.504;19.074;2023-02-19T09:05:38;100306.88;;;11.11;83.76
64792;BME280;51226;47.504;19.074;2023-02-19T09:08:41;100299.56;;;11.27;83.44
64792;BME280;51226;47.504;19.074;2023-02-19T09:11:44;100316.59;;;11.41;83.17
64792;BME280;51226;47.504;19.074;2023-02-19T09:14:50;100320.44;;;11.53;83.42
64792;BME280;51226;47.504;19.074;2023-02-19T09:17:53;100315.37;;;11.57;82.71
64792;BME280;51226;47.504;19.074;2023-02-19T09:20:59;100299.56;;;11.80;81.30
64792;BME280;51226;47.504;19.074;2023-02-19T09:24:03;100301.09;;;11.73;81.06
64792;BME280;51226;47.504;19.074;2023-02-19T09:27:06;100296.91;;;11.51;81.51
64792;BME280;51226;47.504;19.074;2023-02-19T09:30:09;100307.44;;;11.54;81.62
64792;BME280;51226;47.504;19.074;2023-02-19T09:33:12;100294.56;;;11.60;81.96
64792;BME280;51226;47.504;19.074;2023-02-19T09:36:15;100287.94;;;11.70;81.15
64792;BME280;51226;47.504;19.074;2023-02-19T09:39:20;100292.66;;;11.82;79.65
64792;BME280;51226;47.504;19.074;2023-02-19T09:42:26;100273.81;;;11.92;78.37
64792;BME280;51226;47.504;19.074;2023-02-19T09:45:33;100276.34;;;11.91;77.37
64792;BME280;51226;47.504;19.074;2023-02-19T09:48:36;100276.31;;;11.89;77.18
64792;BME280;51226;47.504;19.074;2023-02-19T09:51:42;100272.00;;;12.18;74.62
64792;BME280;51226;47.504;19.074;2023-02-19T09:54:46;100266.59;;;12.42;73.17
64792;BME280;51226;47.504;19.074;2023-02-19T09:57:50;100271.13;;;13.13;71.31
64792;BME280;51226;47.504;19.074;2023-02-19T10:00:54;100264.88;;;13.78;66.25
64792;BME280;51226;47.504;19.074;2023-02-19T10:03:59;100254.59;;;13.87;66.63
64792;BME280;51226;47.504;19.074;2023-02-19T10:07:01;100261.03;;;13.64;67.53
64792;BME280;51226;47.504;19.074;2023-02-19T10:10:20;100247.91;;;14.02;66.89
64792;BME280;51226;47.504;19.074;2023-02-19T10:16:32;100225.47;;;16.25;58.29
64792;BME280;51226;47.504;19.074;2023-02-19T10:19:35;100219.28;;;17.00;55.19
64792;BME280;51226;47.504;19.074;2023-02-19T10:22:38;100225.69;;;17.30;54.28
64792;BME280;51226;47.504;19.074;2023-02-19T10:26:10;100216.19;;;17.55;52.56
64792;BME280;51226;47.504;19.074;2023-02-19T10:29:13;100212.19;;;18.20;51.27
64792;BME280;51226;47.504;19.074;2023-02-19T10:32:19;100189.44;;;18.75;49.83
64792;BME280;51226;47.504;19.074;2023-02-19T10:35:25;100192.97;;;19.48;48.32
64792;BME280;51226;47.504;19.074;2023-02-19T10:38:29;100180.66;;;19.33;47.26
64792;BME280;51226;47.504;19.074;2023-02-19T10:41:33;100175.38;;;18.93;47.61
64792;BME280;51226;47.504;19.074;2023-02-19T10:44:52;100162.03;;;18.23;49.53
64792;BME280;51226;47.504;19.074;2023-02-19T10:47:57;100169.75;;;17.80;50.88
64792;BME280;51226;47.504;19.074;2023-02-19T10:51:10;100160.03;;;17.70;50.66
64792;BME280;51226;47.504;19.074;2023-02-19T10:54:18;100147.00;;;18.05;50.04
64792;BME280;51226;47.504;19.074;2023-02-19T10:57:29;100154.09;;;18.17;49.04
64792;BME280;51226;47.504;19.074;2023-02-19T11:00:32;100132.09;;;18.18;48.83
64792;BME280;51226;47.504;19.074;2023-02-19T11:03:35;100135.72;;;18.66;47.20
64792;BME280;51226;47.504;19.074;2023-02-19T11:06:38;100118.13;;;18.75;46.39
64792;BME280;51226;47.504;19.074;2023-02-19T11:09:46;100111.09;;;19.01;44.64
64792;BME280;51226;47.504;19.074;2023-02-19T11:12:53;100102.22;;;19.30;45.17
64792;BME280;51226;47.504;19.074;2023-02-19T11:15:58;100100.28;;;19.88;43.25
64792;BME280;51226;47.504;19.074;2023-02-19T11:19:01;100088.47;;;20.41;41.05
64792;BME280;51226;47.504;19.074;2023-02-19T11:25:49;100100.50;;;20.91;39.82
64792;BME280;51226;47.504;19.074;2023-02-19T11:29:11;100073.69;;;21.19;38.56
64792;BME280;51226;47.504;19.074;2023-02-19T11:32:27;100072.75;;;21.25;37.84
64792;BME280;51226;47.504;19.074;2023-02-19T11:35:31;100078.34;;;20.97;38.58
64792;BME280;51226;47.504;19.074;2023-02-19T11:38:33;100072.50;;;20.57;38.86
64792;BME280;51226;47.504;19.074;2023-02-19T11:45:07;100053.78;;;20.78;38.57
64792;BME280;51226;47.504;19.074;2023-02-19T11:48:40;100056.28;;;20.94;38.62
64792;BME280;51226;47.504;19.074;2023-02-19T12:12:35;100021.81;;;21.71;35.36
64792;BME280;51226;47.504;19.074;2023-02-19T12:26:01;100007.94;;;22.13;34.72
64792;BME280;51226;47.504;19.074;2023-02-19T12:46:17;100035.19;;;21.63;35.49
64792;BME280;51226;47.504;19.074;2023-02-19T12:49:27;100018.81;;;21.96;35.01
64792;BME280;51226;47.504;19.074;2023-02-19T12:52:36;100041.72;;;22.01;35.46
64792;BME280;51226;47.504;19.074;2023-02-19T12:55:44;100068.16;;;22.11;35.02
64792;BME280;51226;47.504;19.074;2023-02-19T12:58:52;100078.13;;;21.20;38.99
64792;BME280;51226;47.504;19.074;2023-02-19T13:02:20;100062.22;;;20.07;42.11
64792;BME280;51226;47.504;19.074;2023-02-19T13:05:45;100097.84;;;19.14;43.75
64792;BME280;51226;47.504;19.074;2023-02-19T13:08:55;100060.84;;;18.32;46.35
64792;BME280;51226;47.504;19.074;2023-02-19T13:12:36;100064.13;;;17.55;48.40
64792;BME280;51226;47.504;19.074;2023-02-19T13:15:42;100060.25;;;16.92;50.11
64792;BME280;51226;47.504;19.074;2023-02-19T13:18:55;100051.28;;;16.68;51.64
64792;BME280;51226;47.504;19.074;2023-02-19T13:22:41;100051.91;;;17.73;49.55
64792;BME280;51226;47.504;19.074;2023-02-19T13:26:18;100061.50;;;19.77;45.51
64792;BME280;51226;47.504;19.074;2023-02-19T13:32:57;100051.25;;;22.74;41.52
64792;BME280;51226;47.504;19.074;2023-02-19T13:36:11;100042.62;;;23.98;37.75
64792;BME280;51226;47.504;19.074;2023-02-19T13:39:18;100036.94;;;24.14;37.46
64792;BME280;51226;47.504;19.074;2023-02-19T13:42:35;100042.53;;;23.61;37.11
64792;BME280;51226;47.504;19.074;2023-02-19T13:45:41;100072.09;;;22.47;38.67
64792;BME280;51226;47.504;19.074;2023-02-19T13:48:45;100086.56;;;21.58;39.71
64792;BME280;51226;47.504;19.074;2023-02-19T13:51:53;100081.44;;;20.40;41.16
64792;BME280;51226;47.504;19.074;2023-02-19T13:56:02;100089.94;;;18.97;44.72
64792;BME280;51226;47.504;19.074;2023-02-19T13:58:57;100092.44;;;17.95;48.09
64792;BME280;51226;47.504;19.074;2023-02-19T14:05:08;100115.97;;;16.40;51.88
64792;BME280;51226;47.504;19.074;2023-02-19T14:08:11;100116.31;;;15.91;54.14
64792;BME280;51226;47.504;19.074;2023-02-19T14:17:47;100142.59;;;14.70;57.91
64792;BME280;51226;47.504;19.074;2023-02-19T14:21:15;100147.34;;;14.45;59.19
64792;BME280;51226;47.504;19.074;2023-02-19T14:24:18;100159.34;;;14.33;59.57
64792;BME280;51226;47.504;19.074;2023-02-19T14:27:22;100178.91;;;14.04;61.36
64792;BME280;51226;47.504;19.074;2023-02-19T14:30:26;100185.63;;;13.90;60.98
64792;BME280;51226;47.504;19.074;2023-02-19T14:33:32;100192.44;;;13.82;61.59
64792;BME280;51226;47.504;19.074;2023-02-19T14:36:52;100205.50;;;13.80;59.86
64792;BME280;51226;47.504;19.074;2023-02-19T14:39:56;100200.34;;;13.83;58.09
64792;BME280;51226;47.504;19.074;2023-02-19T14:43:01;100206.53;;;13.87;57.65
64792;BME280;51226;47.504;19.074;2023-02-19T14:46:23;100215.72;;;14.09;56.41
64792;BME280;51226;47.504;19.074;2023-02-19T14:49:32;100219.47;;;14.20;56.62
64792;BME280;51226;47.504;19.074;2023-02-19T14:52:42;100221.13;;;14.17;57.00
64792;BME280;51226;47.504;19.074;2023-02-19T14:55:48;100214.91;;;14.13;57.57
64792;BME280;51226;47.504;19.074;2023-02-19T15:02:15;100212.72;;;13.90;58.54
64792;BME280;51226;47.504;19.074;2023-02-19T15:05:27;100213.28;;;13.77;58.97
64792;BME280;51226;47.504;19.074;2023-02-19T15:08:41;100215.56;;;13.62;59.93
64792;BME280;51226;47.504;19.074;2023-02-19T15:11:45;100218.75;;;13.48;59.63
64792;BME280;51226;47.504;19.074;2023-02-19T15:14:48;100220.78;;;13.25;60.95
64792;BME280;51226;47.504;19.074;2023-02-19T15:17:53;100234.00;;;13.30;59.62
64792;BME280;51226;47.504;19.074;2023-02-19T15:21:00;100234.72;;;13.24;59.29
64792;BME280;51226;47.504;19.074;2023-02-19T15:24:05;100237.66;;;13.02;60.73
64792;BME280;51226;47.504;19.074;2023-02-19T15:27:16;100236.53;;;12.92;60.79
64792;BME280;51226;47.504;19.074;2023-02-19T15:30:26;100235.41;;;12.82;60.78
64792;BME280;51226;47.504;19.074;2023-02-19T15:33:33;100230.13;;;12.81;61.31
64792;BME280;51226;47.504;19.074;2023-02-19T15:36:36;100219.44;;;12.71;60.88
64792;BME280;51226;47.504;19.074;2023-02-19T15:39:44;100211.41;;;12.65;60.72
64792;BME280;51226;47.504;19.074;2023-02-19T15:42:50;100200.13;;;12.68;60.54
64792;BME280;51226;47.504;19.074;2023-02-19T15:45:55;100213.03;;;12.60;60.43
64792;BME280;51226;47.504;19.074;2023-02-19T15:56:11;100207.88;;;12.31;60.43
64792;BME280;51226;47.504;19.074;2023-02-19T16:02:33;100229.78;;;12.06;60.85
64792;BME280;51226;47.504;19.074;2023-02-19T16:05:37;100230.84;;;12.11;61.13
64792;BME280;51226;47.504;19.074;2023-02-19T16:08:45;100243.59;;;12.00;61.00
64792;BME280;51226;47.504;19.074;2023-02-19T16:11:51;100251.34;;;11.97;61.54
64792;BME280;51226;47.504;19.074;2023-02-19T16:14:54;100247.34;;;11.81;62.20
64792;BME280;51226;47.504;19.074;2023-02-19T16:17:58;100255.81;;;11.74;62.42
64792;BME280;51226;47.504;19.074;2023-02-19T16:21:05;100256.69;;;11.73;62.74
64792;BME280;51226;47.504;19.074;2023-02-19T16:27:40;100265.19;;;11.67;62.74
64792;BME280;51226;47.504;19.074;2023-02-19T16:30:43;100265.25;;;11.69;62.54
64792;BME280;51226;47.504;19.074;2023-02-19T16:33:48;100278.25;;;11.67;63.05
64792;BME280;51226;47.504;19.074;2023-02-19T16:36:51;100282.53;;;11.65;63.21
64792;BME280;51226;47.504;19.074;2023-02-19T16:46:16;100310.94;;;11.55;65.78
64792;BME280;51226;47.504;19.074;2023-02-19T16:49:20;100314.75;;;11.64;66.98
64792;BME280;51226;47.504;19.074;2023-02-19T16:52:25;100301.22;;;11.50;67.19
64792;BME280;51226;47.504;19.074;2023-02-19T16:55:29;100296.03;;;11.52;66.39
64792;BME280;51226;47.504;19.074;2023-02-19T16:58:34;100289.50;;;11.38;66.30
64792;BME280;51226;47.504;19.074;2023-02-19T17:01:37;100296.25;;;11.32;65.62
64792;BME280;51226;47.504;19.074;2023-02-19T17:04:40;100299.94;;;11.12;66.62
64792;BME280;51226;47.504;19.074;2023-02-19T17:07:43;100306.03;;;11.12;65.75
64792;BME280;51226;47.504;19.074;2023-02-19T17:10:46;100314.59;;;11.08;65.79
64792;BME280;51226;47.504;19.074;2023-02-19T17:13:49;100331.78;;;11.02;66.17
64792;BME280;51226;47.504;19.074;2023-02-19T17:16:52;100330.78;;;10.98;65.90
64792;BME280;51226;47.504;19.074;2023-02-19T17:19:55;100338.28;;;10.89;65.99
64792;BME280;51226;47.504;19.074;2023-02-19T17:22:58;100319.53;;;10.75;66.24
64792;BME280;51226;47.504;19.074;2023-02-19T17:26:01;100328.97;;;10.71;66.08
64792;BME280;51226;47.504;19.074;2023-02-19T17:29:05;100314.87;;;10.66;65.87
64792;BME280;51226;47.504;19.074;2023-02-19T17:32:10;100337.06;;;10.55;67.15
64792;BME280;51226;47.504;19.074;2023-02-19T17:35:13;100329.34;;;10.58;65.98
64792;BME280;51226;47.504;19.074;2023-02-19T17:38:17;100356.41;;;10.62;65.65
64792;BME280;51226;47.504;19.074;2023-02-19T17:41:20;100338.97;;;10.61;65.08
64792;BME280;51226;47.504;19.074;2023-02-19T17:44:23;100362.50;;;10.62;64.46
64792;BME280;51226;47.504;19.074;2023-02-19T17:47:26;100361.69;;;10.63;63.85
64792;BME280;51226;47.504;19.074;2023-02-19T17:50:31;100367.34;;;10.51;64.63
64792;BME280;51226;47.504;19.074;2023-02-19T17:53:34;100372.50;;;10.50;64.21
64792;BME280;51226;47.504;19.074;2023-02-19T17:56:37;100376.59;;;10.43;64.41
64792;BME280;51226;47.504;19.074;2023-02-19T17:59:45;100389.19;;;10.55;62.93
64792;BME280;51226;47.504;19.074;2023-02-19T18:02:48;100390.56;;;10.45;63.37
64792;BME280;51226;47.504;19.074;2023-02-19T18:05:51;100385.00;;;10.36;64.52